Eads, CO

2:30 PM MST on January 17, 2017 (GMT -0700)
Kit Carson | | Change Station

Elev 4301 ft 38.77 °N, 102.79 °W | Updated 22 seconds ago

Clear
Clear
39.3 °F
Feels Like 36 °F
N
4.4
Wind Variable Wind from SSW
Gusts 6.0 mph

Today
High -- | Low -- °F
--% Chance of Precip.
Yesterday
High -- | Low -- °F
Precip. -- in
Pressure 30.07 in
Visibility 10.0 miles
Clouds Clear
Windchill 36 °F
Dew Point 32 °F
Humidity 77%
Rainfall 0.05 in
Snow Depth Not available.
7:06 AM 4:56 PM
Waning Gibbous, 69% visible
METAR KLAA 172053Z AUTO 00000KT 10SM CLR 03/M01 A3005 RMK AO2 SLP183 T00331006 56021 TSNO
Pressure 30.07 in
Visibility 10.0 miles
Clouds Clear
Windchill 36 °F
Dew Point 32 °F
Humidity 77%
Rainfall 0.05 in
Snow Depth Not available.
7:06 AM 4:56 PM
Waning Gibbous, 69% visible
METAR KLAA 172053Z AUTO 00000KT 10SM CLR 03/M01 A3005 RMK AO2 SLP183 T00331006 56021 TSNO

Get Your Daily Forecast Email!

Thanks for signing up!

Be on the lookout for a verification email in your inbox.

You'll start receiving the daily forecast at 8 AM.

×

10-Day Weather Forecast

Almanac

Astronomy

Jan. 17, 2017 Rise Set
Actual Time
Civil Twilight
Nautical Twilight
Astronomical Twilight
Moon
Length of Visible Light
Length of Day
Tomorrow will be .
, % of the Moon is Illuminated

Today's Extremes

State Highs State Lows

Community

WunderPhotos

Upload Photos

1,962,540 photos uploaded!

WunderBlog® & News

Nearby

Air Quality

  Air Quality AQ Index Pollutant
Not available.

Snow Depth

Station Depth Elevation

Earthquake Activity

City Distance Mag. Time & Date
Minimum magnitude displayed is 2.5.

Coastal Water Temperatures

Place Temperature

Stations

Nearby Weather Stations

Station Location Temp. Windchill Dew Point Humidity Wind Precip. Elev Updated Type
                   

Watches & Warnings

There are currently no watches in effect.